Time;durP1;ratioP1;P1;durP2;ratioP2;P2;SDS_P1;SDS_P2;PMS_P1;PMS_P2;Temp;Humidity;BMP_temperature;BMP_pressure;BME280_temperature;BME280_humidity;BME280_pressure;Samples;Min_cycle;Max_cycle;Signal;HPM_P1;HPM_P2
2021/08/07 00:01:24;;;;;;;1.95;1.00;;;17.30;93.40;;;;;;4988868;28;20033;-79
2021/08/07 00:03:50;;;;;;;1.23;0.90;;;17.40;93.30;;;;;;5008236;28;20037;-79
2021/08/07 00:06:16;;;;;;;1.65;0.95;;;17.40;93.20;;;;;;5008120;28;20049;-79
2021/08/07 00:08:42;;;;;;;3.05;1.15;;;17.40;93.20;;;;;;4994972;28;20024;-79
2021/08/07 00:11:10;;;;;;;2.72;1.40;;;17.40;93.40;;;;;;4977707;28;20511;-80
2021/08/07 00:13:37;;;;;;;1.55;1.02;;;17.50;93.40;;;;;;4983989;28;20040;-78
2021/08/07 00:16:03;;;;;;;5.75;1.00;;;17.50;93.30;;;;;;4991573;28;20025;-79
2021/08/07 00:18:28;;;;;;;1.80;1.13;;;17.60;93.20;;;;;;4989494;28;20082;-78
2021/08/07 00:20:54;;;;;;;2.28;1.23;;;17.60;93.30;;;;;;4993510;28;20047;-78
2021/08/07 00:23:19;;;;;;;2.55;1.17;;;17.50;93.20;;;;;;4991634;28;20488;-79
2021/08/07 00:25:45;;;;;;;1.20;1.10;;;17.50;93.20;;;;;;4993022;28;20464;-79
2021/08/07 00:28:10;;;;;;;4.65;0.98;;;17.60;93.00;;;;;;5008934;28;20033;-78
2021/08/07 00:30:38;;;;;;;3.00;1.67;;;17.50;93.10;;;;;;4993494;28;20076;-79
2021/08/07 00:33:04;;;;;;;1.58;1.10;;;17.60;93.30;;;;;;5004782;28;20036;-80
2021/08/07 00:35:29;;;;;;;8.30;1.73;;;17.60;93.30;;;;;;4992344;28;20025;-79
2021/08/07 00:37:55;;;;;;;4.35;1.02;;;17.60;93.20;;;;;;4998826;28;20025;-79
2021/08/07 00:40:21;;;;;;;1.83;1.20;;;17.60;93.40;;;;;;4996355;28;20474;-79
2021/08/07 00:42:46;;;;;;;1.98;1.50;;;17.60;93.30;;;;;;4992653;28;20124;-79
2021/08/07 00:45:12;;;;;;;2.65;1.10;;;17.60;93.20;;;;;;5008569;28;20025;-78
2021/08/07 00:47:38;;;;;;;2.55;1.20;;;17.60;93.40;;;;;;4998696;28;20033;-79
2021/08/07 00:50:06;;;;;;;1.77;1.02;;;17.60;93.30;;;;;;4991898;28;20037;-80
2021/08/07 00:52:31;;;;;;;1.48;1.20;;;17.60;93.40;;;;;;4994285;28;20045;-79
2021/08/07 00:54:59;;;;;;;4.07;1.55;;;17.70;93.40;;;;;;4997487;28;20511;-79
2021/08/07 00:57:25;;;;;;;1.75;1.52;;;17.60;93.20;;;;;;4989102;28;20025;-79
2021/08/07 00:59:50;;;;;;;1.70;1.05;;;17.60;93.40;;;;;;4990018;28;20663;-79
2021/08/07 01:02:18;;;;;;;3.53;1.52;;;17.50;93.50;;;;;;4989414;28;20425;-78
2021/08/07 01:05:19;;;;;;;3.70;1.45;;;17.50;93.40;;;;;;4993109;28;20053;-79
2021/08/07 01:07:54;;;;;;;3.95;1.50;;;17.50;93.80;;;;;;5004125;28;20148;-79
2021/08/07 01:10:31;;;;;;;2.60;1.40;;;17.60;93.50;;;;;;4998192;28;20057;-79
2021/08/07 01:13:23;;;;;;;4.70;1.27;;;17.50;93.60;;;;;;5024387;28;20256;-79
2021/08/07 01:15:58;;;;;;;3.40;1.52;;;17.50;93.60;;;;;;5019424;28;20040;-79
2021/08/07 01:18:24;;;;;;;4.88;1.30;;;17.40;93.90;;;;;;5025453;28;20045;-79
2021/08/07 01:20:51;;;;;;;2.85;1.02;;;17.40;93.70;;;;;;4991753;28;20029;-80
2021/08/07 01:23:23;;;;;;;2.15;1.30;;;17.40;93.80;;;;;;4990771;28;20049;-79
2021/08/07 01:26:08;;;;;;;5.22;1.30;;;17.40;93.80;;;;;;5027825;28;20088;-79
2021/08/07 01:28:34;;;;;;;3.28;1.52;;;17.40;93.50;;;;;;4990992;28;20034;-78
2021/08/07 01:31:01;;;;;;;1.88;1.08;;;17.40;93.70;;;;;;5005366;28;20450;-79
2021/08/07 01:33:27;;;;;;;5.95;1.40;;;17.30;93.70;;;;;;4991322;28;20545;-78
2021/08/07 01:35:52;;;;;;;1.77;1.02;;;17.20;94.20;;;;;;4992450;28;20087;-78
2021/08/07 01:38:18;;;;;;;1.95;1.10;;;17.20;93.90;;;;;;5006086;28;20087;-78
2021/08/07 01:40:44;;;;;;;1.33;1.13;;;17.20;93.90;;;;;;4991110;28;20080;-79
2021/08/07 01:43:09;;;;;;;6.20;1.48;;;17.20;94.10;;;;;;5005003;28;20507;-79
2021/08/07 01:45:35;;;;;;;2.63;1.42;;;17.20;94.20;;;;;;4993303;28;20030;-79
2021/08/07 01:48:08;;;;;;;4.45;0.95;;;17.20;94.30;;;;;;5023318;28;20033;-78
2021/08/07 01:50:37;;;;;;;2.97;1.30;;;17.10;94.10;;;;;;5008067;28;20026;-79
2021/08/07 01:53:07;;;;;;;1.40;1.05;;;17.10;94.00;;;;;;4995445;28;20036;-79
2021/08/07 01:55:34;;;;;;;3.28;1.30;;;17.20;93.80;;;;;;4995589;28;20022;-79
2021/08/07 01:58:07;;;;;;;1.73;1.10;;;17.20;93.90;;;;;;4995297;28;20036;-78
2021/08/07 02:00:34;;;;;;;2.25;1.00;;;17.10;94.00;;;;;;4993343;28;20029;-79
2021/08/07 02:03:00;;;;;;;4.22;1.63;;;17.20;93.80;;;;;;4980608;28;20055;-78
2021/08/07 02:05:26;;;;;;;1.75;1.00;;;17.10;93.90;;;;;;4996595;28;20481;-77
2021/08/07 02:07:52;;;;;;;2.22;1.20;;;17.10;94.10;;;;;;5007462;28;20017;-78
2021/08/07 02:10:17;;;;;;;2.67;1.42;;;17.10;94.00;;;;;;4991639;28;20389;-79
2021/08/07 02:12:43;;;;;;;2.67;1.33;;;17.00;94.00;;;;;;5010172;28;20108;-79
2021/08/07 02:15:10;;;;;;;3.85;1.27;;;17.00;93.90;;;;;;4993025;28;20049;-78
2021/08/07 02:17:35;;;;;;;2.75;1.05;;;17.00;94.20;;;;;;4993819;28;20040;-78
2021/08/07 02:20:01;;;;;;;2.30;1.05;;;17.00;93.90;;;;;;5004512;28;20398;-78
2021/08/07 02:22:26;;;;;;;3.20;1.17;;;17.00;93.90;;;;;;4992804;28;20030;-79
2021/08/07 02:24:52;;;;;;;2.17;1.10;;;17.00;94.00;;;;;;4992943;28;20060;-78
2021/08/07 02:27:18;;;;;;;4.45;1.33;;;17.00;93.90;;;;;;4994479;28;20125;-78
2021/08/07 02:29:43;;;;;;;5.05;1.95;;;17.00;93.80;;;;;;5008641;28;20405;-78
2021/08/07 02:32:09;;;;;;;2.47;1.05;;;16.90;94.00;;;;;;5008762;28;20038;-79
2021/08/07 02:34:37;;;;;;;1.48;1.00;;;16.90;93.80;;;;;;4995003;28;20140;-79
2021/08/07 02:37:03;;;;;;;2.97;0.98;;;17.00;93.80;;;;;;5012206;28;20405;-78
2021/08/07 02:39:28;;;;;;;2.55;1.05;;;17.00;93.60;;;;;;5010030;28;20040;-79
2021/08/07 02:41:55;;;;;;;1.17;1.00;;;17.00;93.70;;;;;;5010010;28;25509;-78
2021/08/07 02:44:20;;;;;;;1.08;0.95;;;17.00;93.60;;;;;;4993565;28;20080;-77
2021/08/07 02:46:46;;;;;;;3.70;1.02;;;17.00;93.50;;;;;;4992351;28;20041;-79
2021/08/07 02:49:11;;;;;;;2.03;1.23;;;17.00;93.50;;;;;;4996299;28;20050;-77
2021/08/07 02:51:37;;;;;;;2.70;1.17;;;16.90;93.50;;;;;;4993159;28;20117;-78
2021/08/07 02:54:03;;;;;;;3.28;1.33;;;16.80;93.70;;;;;;4999761;28;20037;-78
2021/08/07 02:56:28;;;;;;;2.63;1.30;;;16.80;93.60;;;;;;4989808;28;20029;-78
2021/08/07 02:58:54;;;;;;;3.13;1.08;;;16.70;94.10;;;;;;4993370;28;20029;-78
2021/08/07 03:01:19;;;;;;;1.05;0.85;;;16.50;94.30;;;;;;5008705;28;20029;-78
2021/08/07 03:03:45;;;;;;;4.03;2.38;;;16.50;94.10;;;;;;5010628;28;20505;-77
2021/08/07 03:06:10;;;;;;;1.38;1.27;;;16.50;93.90;;;;;;4993695;28;20053;-78
2021/08/07 03:08:36;;;;;;;4.72;1.33;;;16.40;94.50;;;;;;4992924;28;20116;-77
2021/08/07 03:11:02;;;;;;;4.97;1.23;;;16.50;94.20;;;;;;5013708;28;20376;-77
2021/08/07 03:13:27;;;;;;;1.88;1.00;;;16.50;94.00;;;;;;4999586;28;20436;-76
2021/08/07 03:15:53;;;;;;;3.33;2.03;;;16.50;94.30;;;;;;5011085;28;20040;-77
2021/08/07 03:18:18;;;;;;;3.65;1.20;;;16.50;94.30;;;;;;5007660;28;20029;-77
2021/08/07 03:20:44;;;;;;;1.23;1.00;;;16.60;94.20;;;;;;5005837;28;20037;-77
2021/08/07 03:23:09;;;;;;;1.30;0.98;;;16.60;94.00;;;;;;5007268;28;20044;-79
2021/08/07 03:25:35;;;;;;;3.38;1.25;;;16.60;93.90;;;;;;5009179;28;20108;-78
2021/08/07 03:28:01;;;;;;;3.08;1.77;;;16.60;94.20;;;;;;5009382;28;20117;-76
2021/08/07 03:30:27;;;;;;;2.83;1.30;;;16.60;94.10;;;;;;4991406;28;20493;-78
2021/08/07 03:32:52;;;;;;;2.85;1.23;;;16.60;93.90;;;;;;4991909;28;20032;-76
2021/08/07 03:35:18;;;;;;;8.10;1.30;;;16.50;94.10;;;;;;5006400;28;20060;-76
2021/08/07 03:37:44;;;;;;;2.20;1.40;;;16.50;94.00;;;;;;5009872;28;20084;-78
2021/08/07 03:40:10;;;;;;;3.72;1.15;;;16.40;94.00;;;;;;4997388;28;20109;-77
2021/08/07 03:42:37;;;;;;;3.17;1.60;;;16.40;94.10;;;;;;4993525;28;20040;-77
2021/08/07 03:45:04;;;;;;;1.95;1.27;;;16.30;94.30;;;;;;5001877;28;20437;-77
2021/08/07 03:47:29;;;;;;;3.03;1.10;;;16.30;94.40;;;;;;4992898;28;20045;-78
2021/08/07 03:49:55;;;;;;;1.75;1.13;;;16.30;94.30;;;;;;4999546;28;20108;-77
2021/08/07 03:52:20;;;;;;;3.72;1.13;;;16.30;94.40;;;;;;5007781;28;20684;-77
2021/08/07 03:54:46;;;;;;;2.40;1.58;;;16.30;94.30;;;;;;5008782;28;20374;-77
2021/08/07 03:57:11;;;;;;;2.17;1.10;;;16.20;94.60;;;;;;4991692;28;20091;-76
2021/08/07 03:59:37;;;;;;;3.72;1.45;;;16.10;94.40;;;;;;5006705;28;20111;-77
2021/08/07 04:02:02;;;;;;;2.72;1.50;;;16.10;94.80;;;;;;4991849;28;20128;-76
2021/08/07 04:04:28;;;;;;;4.00;1.48;;;16.10;94.90;;;;;;5009582;28;20030;-77
2021/08/07 04:06:53;;;;;;;1.73;1.20;;;16.00;94.60;;;;;;4993948;28;20544;-76
2021/08/07 04:09:19;;;;;;;4.13;1.42;;;16.00;95.20;;;;;;4991066;28;20033;-77
2021/08/07 04:11:44;;;;;;;5.90;1.60;;;16.00;94.80;;;;;;4993860;28;20120;-77
2021/08/07 04:14:10;;;;;;;2.05;1.20;;;16.00;94.60;;;;;;5009289;28;20045;-77
2021/08/07 04:16:35;;;;;;;5.85;1.83;;;16.10;94.70;;;;;;4980727;28;22056;-77
2021/08/07 04:19:01;;;;;;;2.80;1.67;;;16.00;94.60;;;;;;4990911;28;20068;-76
2021/08/07 04:21:26;;;;;;;2.72;1.50;;;16.00;94.80;;;;;;4990942;28;20494;-78
2021/08/07 04:23:52;;;;;;;3.25;1.60;;;16.00;94.50;;;;;;5009726;28;20044;-76
2021/08/07 04:26:18;;;;;;;3.83;1.77;;;16.00;94.70;;;;;;5004617;28;20569;-78
2021/08/07 04:28:43;;;;;;;2.80;1.52;;;16.00;94.80;;;;;;4990129;28;20037;-77
2021/08/07 04:31:09;;;;;;;4.28;1.63;;;16.00;94.90;;;;;;5007005;28;20057;-77
2021/08/07 04:33:34;;;;;;;1.35;1.20;;;15.90;94.80;;;;;;5004588;28;20407;-77
2021/08/07 04:36:03;;;;;;;2.97;1.50;;;16.00;94.70;;;;;;5007853;28;20018;-77
2021/08/07 04:38:28;;;;;;;2.22;1.40;;;16.10;94.80;;;;;;4991970;28;20026;-77
2021/08/07 04:40:54;;;;;;;4.57;1.27;;;16.10;94.80;;;;;;4994762;28;20439;-77
2021/08/07 04:43:19;;;;;;;1.73;1.17;;;16.20;94.90;;;;;;4992481;28;20021;-77
2021/08/07 04:45:45;;;;;;;1.70;1.20;;;16.20;94.90;;;;;;4988758;28;20453;-77
2021/08/07 04:48:11;;;;;;;1.70;1.10;;;16.20;94.80;;;;;;5007655;28;20151;-77
2021/08/07 04:50:36;;;;;;;4.10;1.40;;;16.20;94.60;;;;;;4994127;28;20034;-76
2021/08/07 04:53:02;;;;;;;1.30;1.17;;;16.20;94.80;;;;;;4992323;28;20496;-76
2021/08/07 04:55:28;;;;;;;2.17;1.02;;;16.20;94.60;;;;;;4989745;28;20082;-77
2021/08/07 04:57:54;;;;;;;0.82;0.82;;;16.30;94.60;;;;;;5004239;28;20428;-77
2021/08/07 05:00:19;;;;;;;1.73;1.20;;;16.30;94.60;;;;;;5008673;28;20136;-78
2021/08/07 05:02:48;;;;;;;3.00;1.60;;;16.30;94.90;;;;;;4991939;28;20025;-76
2021/08/07 05:05:14;;;;;;;2.38;1.38;;;16.30;94.70;;;;;;4990014;28;20455;-78
2021/08/07 05:07:40;;;;;;;2.72;1.10;;;16.30;94.80;;;;;;4990770;28;20084;-76
2021/08/07 05:10:07;;;;;;;2.95;1.52;;;16.40;94.40;;;;;;5020868;28;20063;-77
2021/08/07 05:12:32;;;;;;;2.50;1.15;;;16.40;94.80;;;;;;4996043;28;20089;-77
2021/08/07 05:14:58;;;;;;;3.25;1.50;;;16.40;94.40;;;;;;5007983;28;20033;-77
2021/08/07 05:17:24;;;;;;;2.53;1.20;;;16.50;94.60;;;;;;4991239;28;20083;-76
2021/08/07 05:19:50;;;;;;;2.75;1.48;;;16.50;94.40;;;;;;4992420;28;20041;-77
2021/08/07 05:22:15;;;;;;;3.97;1.33;;;16.50;94.60;;;;;;5006068;28;20026;-77
2021/08/07 05:24:41;;;;;;;1.27;0.93;;;16.60;94.60;;;;;;5013619;28;20048;-77
2021/08/07 05:27:07;;;;;;;2.78;1.23;;;16.60;94.40;;;;;;5012481;28;20108;-77
2021/08/07 05:29:32;;;;;;;3.55;1.50;;;16.60;94.60;;;;;;4988489;28;20056;-75
2021/08/07 05:31:58;;;;;;;2.85;1.50;;;16.60;94.70;;;;;;5009553;28;20108;-78
2021/08/07 05:34:23;;;;;;;2.22;1.33;;;16.60;94.50;;;;;;4994020;28;20057;-76
2021/08/07 05:36:49;;;;;;;3.03;1.13;;;16.70;94.40;;;;;;5011497;28;20164;-77
2021/08/07 05:39:14;;;;;;;2.50;0.98;;;16.70;94.10;;;;;;5010082;28;20042;-77
2021/08/07 05:41:40;;;;;;;1.70;1.17;;;16.80;94.50;;;;;;4302184;28;10000160;-76
2021/08/07 05:44:05;;;;;;;2.88;1.30;;;16.80;94.10;;;;;;5004804;28;20104;-77
2021/08/07 05:46:31;;;;;;;3.03;1.27;;;16.80;94.30;;;;;;4998646;28;20034;-78
2021/08/07 05:48:57;;;;;;;2.22;1.10;;;16.80;94.20;;;;;;4994201;28;20489;-77
2021/08/07 05:51:22;;;;;;;4.32;1.73;;;16.80;94.00;;;;;;5008811;28;20033;-77
2021/08/07 05:53:48;;;;;;;2.72;1.10;;;16.90;94.10;;;;;;4996274;28;20500;-77
2021/08/07 05:56:13;;;;;;;2.08;1.08;;;16.90;94.20;;;;;;5007356;28;20125;-77
2021/08/07 05:58:39;;;;;;;7.55;1.23;;;16.90;94.10;;;;;;4994935;28;20075;-79
2021/08/07 06:01:06;;;;;;;2.65;1.38;;;16.70;94.50;;;;;;4993759;28;20383;-79
2021/08/07 06:03:32;;;;;;;3.22;1.60;;;16.70;95.30;;;;;;5011126;28;20455;-79
2021/08/07 06:05:58;;;;;;;1.88;1.10;;;16.60;95.40;;;;;;4992931;28;20493;-80
2021/08/07 06:08:23;;;;;;;2.05;1.10;;;16.70;94.90;;;;;;4990833;28;20025;-80
2021/08/07 06:10:49;;;;;;;2.60;1.38;;;16.80;94.90;;;;;;4996868;28;20026;-79
2021/08/07 06:13:15;;;;;;;2.03;1.00;;;16.70;95.00;;;;;;4999803;28;20560;-81
2021/08/07 06:15:41;;;;;;;3.97;1.45;;;16.70;95.60;;;;;;4997027;28;20642;-80
2021/08/07 06:18:06;;;;;;;2.25;1.05;;;16.70;94.90;;;;;;4992071;28;20382;-79
2021/08/07 06:20:32;;;;;;;2.97;1.17;;;16.60;94.80;;;;;;4991653;28;20557;-80
2021/08/07 06:22:57;;;;;;;3.33;1.38;;;16.70;95.20;;;;;;4995700;28;20024;-81
2021/08/07 06:25:24;;;;;;;4.07;1.45;;;16.70;95.40;;;;;;4995411;28;20466;-79
2021/08/07 06:27:54;;;;;;;3.13;1.00;;;16.70;95.30;;;;;;5031413;28;20481;-79
2021/08/07 06:30:20;;;;;;;3.95;1.10;;;16.70;95.00;;;;;;5009357;28;20477;-81
2021/08/07 06:32:45;;;;;;;4.35;1.75;;;16.80;95.10;;;;;;4994658;28;20040;-79
2021/08/07 06:35:11;;;;;;;2.25;1.33;;;16.70;95.60;;;;;;5010283;28;20026;-80
2021/08/07 06:37:37;;;;;;;2.33;0.95;;;16.80;95.00;;;;;;4992058;28;20080;-80
2021/08/07 06:40:03;;;;;;;3.38;1.30;;;16.80;94.90;;;;;;5010811;28;20083;-80
2021/08/07 06:42:29;;;;;;;2.78;1.27;;;16.90;95.20;;;;;;4992942;28;20037;-80
2021/08/07 06:44:54;;;;;;;2.80;1.50;;;16.90;95.00;;;;;;4994159;28;20470;-80
2021/08/07 06:47:20;;;;;;;4.43;1.65;;;17.00;95.10;;;;;;4989403;28;20048;-80
2021/08/07 06:49:46;;;;;;;4.85;1.40;;;17.10;95.20;;;;;;4995206;28;20038;-79
2021/08/07 06:52:12;;;;;;;1.80;1.05;;;17.20;94.90;;;;;;4978562;28;20094;-79
2021/08/07 06:54:38;;;;;;;1.95;1.00;;;17.30;95.20;;;;;;4993855;28;20037;-79
2021/08/07 06:57:03;;;;;;;2.75;1.20;;;17.30;95.20;;;;;;5004662;28;20033;-79
2021/08/07 06:59:29;;;;;;;4.82;1.38;;;17.40;95.30;;;;;;5006801;28;20041;-79
2021/08/07 07:01:55;;;;;;;7.13;1.60;;;17.60;95.60;;;;;;5000656;28;20032;-80
2021/08/07 07:04:20;;;;;;;8.52;2.03;;;17.70;95.10;;;;;;4992931;28;20687;-79
2021/08/07 07:06:46;;;;;;;6.13;1.85;;;17.90;95.50;;;;;;4994884;28;20133;-79
2021/08/07 07:09:11;;;;;;;4.70;1.55;;;18.00;94.90;;;;;;5010322;28;20034;-80
2021/08/07 07:11:37;;;;;;;4.15;1.38;;;18.10;94.90;;;;;;4998963;28;20033;-80
2021/08/07 07:14:05;;;;;;;4.25;1.42;;;18.20;94.80;;;;;;4993960;28;21038;-78
2021/08/07 07:16:31;;;;;;;3.20;1.20;;;18.30;95.10;;;;;;4993922;28;20113;-79
2021/08/07 07:18:57;;;;;;;9.88;1.20;;;18.30;94.00;;;;;;4992529;28;20511;-77
2021/08/07 07:21:23;;;;;;;3.10;1.30;;;18.30;94.10;;;;;;4990235;28;20142;-77
2021/08/07 07:23:48;;;;;;;3.75;1.38;;;18.30;94.00;;;;;;4994977;28;20490;-78
2021/08/07 07:26:14;;;;;;;6.32;1.20;;;18.30;94.00;;;;;;4996424;28;20033;-77
2021/08/07 07:28:39;;;;;;;4.57;1.45;;;18.40;93.90;;;;;;4999357;28;20033;-77
2021/08/07 07:31:05;;;;;;;5.93;1.55;;;18.50;94.00;;;;;;4992049;28;20025;-78
2021/08/07 07:33:30;;;;;;;2.70;1.10;;;18.60;94.20;;;;;;4994303;28;20041;-79
2021/08/07 07:35:56;;;;;;;2.80;1.45;;;18.60;93.60;;;;;;4995782;28;20025;-79
2021/08/07 07:38:21;;;;;;;3.33;1.50;;;18.60;93.90;;;;;;5011014;28;20393;-79
2021/08/07 07:40:47;;;;;;;3.58;1.55;;;18.50;94.00;;;;;;5000012;28;20505;-78
2021/08/07 07:43:14;;;;;;;3.80;1.30;;;18.70;93.70;;;;;;5005348;28;20114;-79
2021/08/07 07:45:40;;;;;;;3.92;1.20;;;18.70;93.80;;;;;;4995606;28;20026;-79
2021/08/07 07:48:05;;;;;;;2.42;1.35;;;18.90;93.80;;;;;;4993055;28;20036;-78
2021/08/07 07:50:31;;;;;;;3.92;1.42;;;18.90;93.90;;;;;;4994283;28;20034;-77
2021/08/07 07:52:56;;;;;;;5.68;1.38;;;19.10;94.10;;;;;;4984420;28;20037;-78
2021/08/07 07:55:22;;;;;;;3.28;1.60;;;19.20;93.60;;;;;;4976310;28;20040;-78
2021/08/07 07:57:47;;;;;;;5.22;1.88;;;19.40;94.40;;;;;;5010527;28;20026;-78
2021/08/07 08:00:13;;;;;;;3.15;1.40;;;19.70;93.80;;;;;;5010220;28;20153;-78
2021/08/07 08:02:39;;;;;;;1.88;1.48;;;19.90;93.10;;;;;;4992100;28;20153;-79
2021/08/07 08:05:04;;;;;;;3.28;1.33;;;20.30;94.00;;;;;;4991549;28;20021;-81
2021/08/07 08:07:30;;;;;;;3.55;1.42;;;20.30;92.60;;;;;;4992893;28;20033;-78
2021/08/07 08:09:55;;;;;;;3.25;1.33;;;20.30;92.80;;;;;;5006296;28;20080;-79
2021/08/07 08:12:21;;;;;;;3.08;1.30;;;20.40;93.20;;;;;;5009262;28;20026;-78
2021/08/07 08:14:46;;;;;;;7.10;1.55;;;20.50;93.30;;;;;;4991684;28;20030;-80
2021/08/07 08:17:12;;;;;;;7.65;1.60;;;20.80;92.40;;;;;;5007255;28;20038;-79
2021/08/07 08:19:40;;;;;;;3.03;1.20;;;20.80;92.30;;;;;;4991804;28;20036;-79
2021/08/07 08:22:06;;;;;;;4.60;1.50;;;20.80;92.10;;;;;;5017907;28;20083;-79
2021/08/07 08:24:32;;;;;;;3.25;1.38;;;21.10;91.80;;;;;;4995367;28;20397;-79
2021/08/07 08:26:57;;;;;;;3.47;1.42;;;21.20;91.30;;;;;;5000010;28;20424;-78
2021/08/07 08:29:23;;;;;;;4.45;1.23;;;21.30;91.20;;;;;;4991297;28;20037;-78
2021/08/07 08:31:49;;;;;;;2.63;1.23;;;21.60;91.00;;;;;;4990889;28;20371;-79
2021/08/07 08:34:14;;;;;;;2.45;1.55;;;21.70;91.50;;;;;;4993554;28;20552;-79
2021/08/07 08:36:40;;;;;;;4.65;1.52;;;22.10;93.10;;;;;;4992643;28;20034;-80
2021/08/07 08:39:05;;;;;;;7.85;1.40;;;22.40;91.60;;;;;;4990602;28;20037;-79
2021/08/07 08:41:36;;;;;;;8.82;1.27;;;22.10;90.40;;;;;;4989895;28;20585;-78
2021/08/07 08:44:03;;;;;;;1.73;1.20;;;22.40;91.80;;;;;;4991826;28;20504;-79
2021/08/07 08:46:29;;;;;;;4.35;1.30;;;22.40;90.60;;;;;;4991840;28;20029;-80
2021/08/07 08:48:55;;;;;;;4.70;1.38;;;22.50;90.10;;;;;;5008840;28;20048;-79
2021/08/07 08:51:25;;;;;;;5.60;1.45;;;23.10;91.00;;;;;;4999888;28;20029;-79
2021/08/07 08:53:51;;;;;;;2.42;1.20;;;23.60;92.20;;;;;;4994188;28;20025;-79
2021/08/07 08:56:17;;;;;;;3.60;1.20;;;23.90;91.90;;;;;;5007080;28;20464;-78
2021/08/07 08:58:42;;;;;;;3.97;1.15;;;23.90;91.70;;;;;;4990853;28;20033;-79
2021/08/07 09:01:08;;;;;;;2.85;1.60;;;24.10;91.40;;;;;;4991341;28;20281;-79
2021/08/07 09:03:34;;;;;;;2.70;1.10;;;24.20;90.20;;;;;;4991910;28;20378;-78
2021/08/07 09:05:59;;;;;;;3.42;1.30;;;24.10;87.10;;;;;;4989075;28;20041;-78
2021/08/07 09:08:25;;;;;;;4.22;1.58;;;24.10;89.20;;;;;;5007473;28;20026;-77
2021/08/07 09:11:12;;;;;;;6.75;1.45;;;24.40;87.40;;;;;;5010021;28;20026;-79
2021/08/07 09:13:38;;;;;;;4.65;1.48;;;24.40;87.30;;;;;;5008882;28;20485;-80
2021/08/07 09:16:07;;;;;;;3.88;1.55;;;24.70;88.30;;;;;;4990850;28;20097;-79
2021/08/07 09:18:33;;;;;;;4.13;1.60;;;25.30;85.10;;;;;;4993348;28;20025;-80
2021/08/07 09:21:25;;;;;;;3.15;1.38;;;25.00;85.00;;;;;;4991722;28;20481;-80
2021/08/07 09:23:51;;;;;;;3.20;1.20;;;25.50;82.80;;;;;;5007668;28;21777;-82
2021/08/07 09:26:22;;;;;;;2.90;1.35;;;25.50;86.40;;;;;;4989559;28;20091;-81
2021/08/07 09:28:49;;;;;;;2.22;1.40;;;25.70;83.20;;;;;;4994789;28;20080;-81
2021/08/07 09:31:15;;;;;;;3.33;1.60;;;25.70;80.90;;;;;;4992080;28;20481;-80
2021/08/07 09:33:40;;;;;;;3.17;1.30;;;25.70;80.60;;;;;;4994619;28;20052;-80
2021/08/07 09:36:06;;;;;;;4.05;1.52;;;26.20;81.80;;;;;;4990186;28;20339;-80
2021/08/07 09:38:32;;;;;;;7.32;1.92;;;25.90;77.00;;;;;;4990995;28;20017;-81
2021/08/07 09:40:59;;;;;;;4.70;1.35;;;25.90;78.60;;;;;;4994015;28;20069;-80
2021/08/07 09:43:27;;;;;;;3.85;1.35;;;26.40;80.30;;;;;;4986874;28;20037;-80
2021/08/07 09:46:00;;;;;;;3.13;1.20;;;26.70;78.30;;;;;;4993111;28;20496;-80
2021/08/07 09:48:47;;;;;;;2.63;1.00;;;26.70;80.00;;;;;;4993008;28;20048;-81
2021/08/07 09:51:23;;;;;;;1.40;1.23;;;26.80;82.80;;;;;;4991541;28;20452;-81
2021/08/07 09:54:08;;;;;;;3.60;1.00;;;26.80;77.40;;;;;;4989517;28;20367;-80
2021/08/07 09:56:53;;;;;;;3.13;1.02;;;26.60;74.10;;;;;;5004718;28;20485;-79
2021/08/07 09:59:21;;;;;;;5.83;1.17;;;26.10;75.80;;;;;;4990591;28;20113;-79
2021/08/07 10:01:47;;;;;;;2.67;1.15;;;25.60;74.60;;;;;;4992401;28;20040;-80
2021/08/07 10:04:14;;;;;;;3.92;0.93;;;25.90;76.40;;;;;;5022059;28;20033;-78
2021/08/07 10:06:40;;;;;;;4.95;1.10;;;26.40;75.90;;;;;;4988946;28;20573;-80
2021/08/07 10:09:06;;;;;;;7.68;1.50;;;25.70;75.10;;;;;;4992579;28;20036;-79
2021/08/07 10:11:32;;;;;;;2.78;1.13;;;25.60;75.90;;;;;;4991334;28;20414;-78
2021/08/07 10:13:58;;;;;;;5.35;1.42;;;25.50;75.30;;;;;;4996905;28;20044;-78
2021/08/07 10:16:23;;;;;;;4.78;1.45;;;25.90;78.70;;;;;;4988253;28;20551;-78
2021/08/07 10:18:50;;;;;;;1.75;0.90;;;25.90;76.60;;;;;;4994051;28;20025;-78
2021/08/07 10:21:16;;;;;;;2.67;1.15;;;25.80;75.30;;;;;;4994538;28;20624;-80
2021/08/07 10:23:42;;;;;;;4.25;1.25;;;26.00;75.50;;;;;;4996619;28;20120;-78
2021/08/07 10:26:14;;;;;;;3.35;0.90;;;25.60;74.20;;;;;;4993580;28;20034;-80
2021/08/07 10:28:47;;;;;;;5.35;1.38;;;25.50;77.20;;;;;;4992158;28;20025;-78
2021/08/07 10:31:13;;;;;;;5.85;1.27;;;26.20;74.20;;;;;;4992437;28;20022;-78
2021/08/07 10:33:43;;;;;;;3.83;1.50;;;26.90;75.20;;;;;;5009214;28;20534;-78
2021/08/07 10:36:09;;;;;;;2.53;1.23;;;26.80;76.80;;;;;;4994290;28;20402;-79
2021/08/07 10:38:38;;;;;;;4.70;1.50;;;27.40;74.30;;;;;;4995437;28;20056;-78
2021/08/07 10:41:04;;;;;;;3.78;1.25;;;27.30;75.40;;;;;;5006999;28;20033;-78
2021/08/07 10:43:32;;;;;;;4.18;1.10;;;27.50;76.40;;;;;;4989363;28;20098;-78
2021/08/07 10:45:58;;;;;;;4.15;1.33;;;27.70;73.80;;;;;;4996051;28;20465;-78
2021/08/07 10:48:43;;;;;;;5.32;1.55;;;27.50;74.60;;;;;;5012124;28;20033;-78
2021/08/07 10:51:24;;;;;;;2.03;1.00;;;27.50;72.40;;;;;;4992148;28;20052;-77
2021/08/07 10:53:53;;;;;;;2.35;1.05;;;27.40;72.00;;;;;;5005376;28;20025;-78
2021/08/07 10:56:34;;;;;;;3.40;0.90;;;27.30;69.90;;;;;;5010060;28;20173;-77
2021/08/07 10:59:11;;;;;;;4.07;1.30;;;27.30;67.90;;;;;;5024527;28;20024;-79
2021/08/07 11:01:40;;;;;;;3.33;1.27;;;27.00;67.30;;;;;;5028404;28;20033;-77
2021/08/07 11:04:07;;;;;;;5.35;1.30;;;26.70;66.50;;;;;;4989374;28;20032;-77
2021/08/07 11:06:38;;;;;;;4.78;1.13;;;27.40;67.00;;;;;;5004368;28;20033;-77
2021/08/07 11:09:20;;;;;;;1.88;0.90;;;27.20;65.90;;;;;;5024305;28;20355;-78
2021/08/07 11:11:47;;;;;;;1.17;0.68;;;27.60;69.20;;;;;;5008614;28;20061;-78
2021/08/07 11:14:33;;;;;;;3.33;0.90;;;27.60;64.80;;;;;;5005930;28;20030;-79
2021/08/07 11:17:04;;;;;;;3.45;1.23;;;28.10;67.90;;;;;;4667162;28;10001219;-78
2021/08/07 11:19:56;;;;;;;7.07;1.20;;;28.10;65.70;;;;;;5001420;28;20514;-78
2021/08/07 11:22:44;;;;;;;2.72;1.00;;;28.00;68.80;;;;;;5023105;28;20131;-78
2021/08/07 11:25:20;;;;;;;5.15;1.10;;;28.00;66.60;;;;;;5014288;28;20041;-79
2021/08/07 11:27:59;;;;;;;1.83;0.88;;;27.80;67.20;;;;;;4989307;28;20033;-78
2021/08/07 11:30:31;;;;;;;2.80;1.00;;;27.60;65.90;;;;;;5012451;28;20033;-78
2021/08/07 11:33:09;;;;;;;2.53;0.82;;;27.40;66.90;;;;;;5008988;28;20094;-78
2021/08/07 11:35:38;;;;;;;2.65;0.98;;;27.30;65.40;;;;;;5023145;28;20489;-79
2021/08/07 11:38:09;;;;;;;2.55;1.00;;;27.30;68.20;;;;;;5027035;28;20081;-78
2021/08/07 11:40:46;;;;;;;7.20;1.60;;;27.40;66.80;;;;;;5022954;28;20036;-78
2021/08/07 11:43:18;;;;;;;3.45;1.05;;;27.20;66.60;;;;;;5005237;28;20136;-78
2021/08/07 11:45:44;;;;;;;3.20;1.15;;;26.80;67.80;;;;;;4990537;28;20037;-78
2021/08/07 11:48:09;;;;;;;3.03;1.08;;;26.60;65.90;;;;;;4991305;28;20410;-77
2021/08/07 11:50:36;;;;;;;1.60;0.98;;;26.40;67.30;;;;;;4993251;28;20025;-78
2021/08/07 11:53:14;;;;;;;3.50;1.17;;;26.40;69.30;;;;;;4992872;28;20018;-78
2021/08/07 11:55:39;;;;;;;3.90;1.30;;;26.70;68.90;;;;;;4987679;28;20469;-77
2021/08/07 11:58:09;;;;;;;2.97;0.98;;;26.60;70.10;;;;;;4995068;28;20088;-78
2021/08/07 12:00:36;;;;;;;1.85;0.77;;;26.70;68.70;;;;;;4995916;28;20064;-79
2021/08/07 12:03:03;;;;;;;4.28;1.00;;;26.50;66.50;;;;;;5008678;28;20026;-78
2021/08/07 12:05:29;;;;;;;3.88;0.98;;;26.30;66.70;;;;;;5008444;28;20026;-78
2021/08/07 12:08:05;;;;;;;1.88;0.80;;;26.60;68.40;;;;;;4999039;28;20045;-78
2021/08/07 12:10:32;;;;;;;1.45;0.82;;;26.50;64.70;;;;;;5010254;28;20551;-77
2021/08/07 12:12:58;;;;;;;2.65;0.75;;;26.30;65.30;;;;;;4991217;28;20029;-77
2021/08/07 12:15:24;;;;;;;7.82;1.73;;;26.30;64.90;;;;;;4990274;28;20095;-78
2021/08/07 12:17:49;;;;;;;3.97;0.80;;;26.50;64.10;;;;;;4990089;28;20428;-77
2021/08/07 12:20:15;;;;;;;1.67;0.73;;;25.90;63.10;;;;;;5006584;28;20034;-79
2021/08/07 12:22:57;;;;;;;1.08;0.70;;;26.20;64.90;;;;;;5008814;28;20025;-77
2021/08/07 12:25:22;;;;;;;2.65;0.70;;;26.20;62.80;;;;;;5003758;28;20485;-77
2021/08/07 12:28:20;;;;;;;2.85;1.08;;;26.40;66.40;;;;;;5005981;28;20033;-77
2021/08/07 12:31:01;;;;;;;10.15;0.98;;;26.90;65.20;;;;;;4973257;28;21728;-80
2021/08/07 12:33:26;;;;;;;4.15;0.82;;;26.80;64.80;;;;;;4977934;28;20056;-77
2021/08/07 12:35:52;;;;;;;3.17;1.00;;;27.20;67.70;;;;;;4991481;28;20068;-77
2021/08/07 12:38:23;;;;;;;2.80;0.80;;;27.30;64.70;;;;;;5008400;28;20707;-78
2021/08/07 12:40:52;;;;;;;3.13;0.85;;;27.60;65.90;;;;;;4990306;28;20029;-78
2021/08/07 12:43:17;;;;;;;3.78;0.68;;;28.10;65.20;;;;;;5006555;28;20614;-78
2021/08/07 12:45:43;;;;;;;1.77;0.70;;;27.90;65.30;;;;;;5007135;28;20045;-78
2021/08/07 12:48:08;;;;;;;2.35;1.13;;;28.30;66.00;;;;;;5005227;28;20085;-78